Saturday, January 20, 2018, 8:23 AM EST
Back to Local

KPKB, Mid-ohio Valley Rgnl Airport

Location: Parkersburg, WV, United States Lat: 39.333
Local Time: 8:23 AM EST (13:23 GMT) Lon: -81.45
Time Zone: US/Eastern Elev: 859 ft

Show me the last for .
Show Decoded

2018-01-20 07:53 METAR KPKB 201253Z 20009KT 10SM CLR 03/M03 A3012 RMK AO2 SLP205 T00331033 =
2018-01-20 06:53 METAR KPKB 201153Z 20009KT 10SM CLR 03/M04 A3011 RMK AO2 SLP202 T00331044 10033
                 20022 53006 =
2018-01-20 05:53 METAR KPKB 201053Z AUTO 20007KT 10SM CLR 02/M06 A3011 RMK AO2 SLP201 T00221061 =
2018-01-20 04:53 METAR KPKB 200953Z AUTO 20008KT 10SM CLR 03/M07 A3009 RMK AO2 SLP194 T00281072 =
2018-01-20 03:53 METAR KPKB 200853Z AUTO 20008KT 10SM FEW030 03/M08 A3009 RMK AO2 SLP195
                 T00281078 53009 =
2018-01-20 01:53 METAR KPKB 200653Z AUTO 20009KT 10SM CLR 03/M10 A3007 RMK AO2 SLP189 T00281100 =
2018-01-20 00:53 METAR KPKB 200553Z AUTO 20010KT 10SM CLR 03/M10 A3006 RMK AO2 SLP186 T00281100
                 10033 20011 58004 =
2018-01-19 23:53 METAR KPKB 200453Z AUTO 20011KT 10SM CLR 03/M10 A3007 RMK AO2 SLP189 T00331100
                 400501056 =
2018-01-19 22:53 METAR KPKB 200353Z 20010KT 10SM CLR 03/M11 A3009 RMK AO2 SLP195 T00281106 =
2018-01-19 21:53 METAR KPKB 200253Z 19006KT 10SM CLR 02/M10 A3008 RMK AO2 SLP193 T00171100 58008
                 =
2018-01-19 20:53 METAR KPKB 200153Z 18005KT 10SM CLR 02/M09 A3009 RMK AO2 SLP199 T00171094 =
2018-01-19 19:53 METAR KPKB 200053Z 17005KT 10SM CLR 02/M09 A3010 RMK AO2 SLP201 T00171089 =
2018-01-19 18:53 METAR KPKB 192353Z 20005KT 10SM CLR 02/M09 A3010 RMK AO2 SLP202 T00221089 10050
                 20022 58002 =
2018-01-19 17:53 METAR KPKB 192253Z 22005KT 10SM CLR 04/M09 A3012 RMK AO2 SLP206 T00391094 =
2018-01-19 16:53 METAR KPKB 192153Z 21009KT 10SM CLR 04/M09 A3011 RMK AO2 SLP203 T00441089 =
2018-01-19 15:53 METAR KPKB 192053Z 20011KT 10SM CLR 04/M09 A3011 RMK AO2 SLP203 T00441089 56017
                 =
2018-01-19 14:53 METAR KPKB 191953Z 20012KT 10SM CLR 04/M09 A3012 RMK AO2 SLP207 T00391089 =
2018-01-19 13:53 METAR KPKB 191853Z 19008KT 10SM CLR 03/M10 A3014 RMK AO2 SLP213 T00331100 =
2018-01-19 12:53 METAR KPKB 191753Z 21012KT 10SM CLR 02/M10 A3016 RMK AO2 SLP221 T00221100 10022
                 21056 58024 =
2018-01-19 11:53 METAR KPKB 191653Z 20009G17KT 10SM CLR 01/M11 A3020 RMK AO2 SLP234 T00111106 =
2018-01-19 10:53 METAR KPKB 191553Z 22008G17KT 190V250 10SM CLR M01/M11 A3023 RMK AO2 SLP246
                 T10061111 =
2018-01-19 09:53 METAR KPKB 191453Z 21010KT 10SM CLR M02/M12 A3023 RMK AO2 SLP248 T10221117 53001
                 =
2018-01-19 08:53 METAR KPKB 191353Z 20007KT 10SM CLR M04/M12 A3023 RMK AO2 SLP249 T10391122 =

Support USWX by starting your Amazon purchase here.